createdAt,value
2018-11-02T00:03:31.549Z,99213.20
2018-11-02T00:09:36.725Z,99221.28
2018-11-02T00:15:41.700Z,99206.64
2018-11-02T00:21:47.655Z,99205.19
2018-11-02T00:27:52.465Z,99209.79
2018-11-02T00:33:57.210Z,99212.56
2018-11-02T00:40:02.369Z,99213.38
2018-11-02T00:46:07.944Z,99221.80
2018-11-02T00:52:13.222Z,99231.75
2018-11-02T00:58:17.954Z,99232.86
2018-11-02T01:04:22.624Z,99249.16
2018-11-02T01:10:27.356Z,99240.75
2018-11-02T01:16:32.866Z,99245.13
2018-11-02T01:22:37.500Z,99259.78
2018-11-02T01:28:42.200Z,99264.35
2018-11-02T01:34:46.926Z,99280.41
2018-11-02T01:40:51.652Z,99281.66
2018-11-02T01:46:56.397Z,99294.91
2018-11-02T01:53:01.606Z,99289.45
2018-11-02T01:59:06.992Z,99305.98
2018-11-02T02:05:11.750Z,99313.94
2018-11-02T02:11:16.670Z,99322.16
2018-11-02T02:17:21.735Z,99323.89
2018-11-02T02:23:26.682Z,99322.80
2018-11-02T02:29:31.385Z,99320.89
2018-11-02T02:35:36.115Z,99316.17
2018-11-02T02:41:41.178Z,99316.47
2018-11-02T02:47:46.187Z,99324.95
2018-11-02T02:53:51.253Z,99328.41
2018-11-02T02:59:55.941Z,99327.45
2018-11-02T03:06:00.587Z,99322.62
2018-11-02T03:12:05.794Z,99344.49
2018-11-02T03:18:10.576Z,99347.53
2018-11-02T03:24:15.357Z,99348.36
2018-11-02T03:30:20.716Z,99355.38
2018-11-02T03:36:25.800Z,99357.33
2018-11-02T03:42:30.527Z,99359.56
2018-11-02T03:48:35.369Z,99366.18
2018-11-02T03:54:40.086Z,99357.46
2018-11-02T04:00:45.979Z,99374.53
2018-11-02T04:06:50.697Z,99383.59
2018-11-02T04:12:55.354Z,99387.61
2018-11-02T04:19:00.427Z,99394.95
2018-11-02T04:25:06.353Z,99393.12
2018-11-02T04:31:11.216Z,99408.86
2018-11-02T04:37:15.797Z,99421.86
2018-11-02T04:43:20.919Z,99430.41
2018-11-02T04:49:25.606Z,99435.25
2018-11-02T04:55:30.654Z,99450.86
2018-11-02T05:01:35.317Z,99465.83
2018-11-02T05:07:40.699Z,99472.43
2018-11-02T05:13:45.820Z,99470.09
2018-11-02T05:19:50.560Z,99472.61
2018-11-02T05:25:55.312Z,99478.48
2018-11-02T05:32:00.094Z,99487.56
2018-11-02T05:38:05.327Z,99500.14
2018-11-02T05:44:10.068Z,99511.66
2018-11-02T05:50:15.094Z,99516.47
2018-11-02T05:56:19.912Z,99523.97
2018-11-02T06:02:24.599Z,99541.27
2018-11-02T06:08:30.048Z,99568.84
2018-11-02T06:14:35.248Z,99593.88
2018-11-02T06:20:40.034Z,99600.72
2018-11-02T06:26:44.938Z,99610.55
2018-11-02T06:32:49.792Z,99626.38
2018-11-02T06:38:54.499Z,99626.95
2018-11-02T06:44:59.256Z,99627.11
2018-11-02T06:51:03.907Z,99629.39
2018-11-02T06:57:08.877Z,99640.77
2018-11-02T07:03:13.593Z,99640.70
2018-11-02T07:09:18.649Z,99645.55
2018-11-02T07:15:23.373Z,99646.83
2018-11-02T07:21:28.098Z,99657.56
2018-11-02T07:27:33.143Z,99648.16
2018-11-02T07:33:37.885Z,99664.86
2018-11-02T07:39:42.486Z,99671.77
2018-11-02T07:45:47.251Z,99676.84
2018-11-02T07:51:52.401Z,99693.61
2018-11-02T07:57:57.155Z,99710.63
2018-11-02T08:04:02.373Z,99718.95
2018-11-02T08:10:07.097Z,99734.21
2018-11-02T08:16:12.236Z,99749.16
2018-11-02T08:22:16.936Z,99760.98
2018-11-02T08:28:21.701Z,99763.09
2018-11-02T08:34:26.372Z,99775.37
2018-11-02T08:40:31.200Z,99785.17
2018-11-02T08:46:35.968Z,99794.30
2018-11-02T08:52:41.118Z,99806.12
2018-11-02T08:58:46.140Z,99813.14
2018-11-02T09:04:50.692Z,99820.36
2018-11-02T09:10:55.378Z,99832.58
2018-11-02T09:17:00.088Z,99841.51
2018-11-02T09:23:05.107Z,99840.11
2018-11-02T09:29:09.897Z,99838.52
2018-11-02T09:35:15.506Z,99859.16
2018-11-02T09:41:20.652Z,99880.74
2018-11-02T09:47:25.396Z,99898.22
2018-11-02T09:53:30.213Z,99913.59
2018-11-02T09:59:34.934Z,99914.83
2018-11-02T10:05:39.628Z,99929.80
2018-11-02T10:11:44.499Z,99934.20
2018-11-02T10:17:49.299Z,99930.55
2018-11-02T10:23:54.546Z,99926.83
2018-11-02T10:29:59.271Z,99934.59
2018-11-02T10:36:06.272Z,99935.86
2018-11-02T10:42:12.605Z,99945.94
2018-11-02T10:48:17.593Z,99958.01
2018-11-02T10:54:22.446Z,99959.84
2018-11-02T11:00:32.480Z,99954.14
2018-11-02T11:06:37.224Z,99951.91
2018-11-02T11:12:42.416Z,99947.56
2018-11-02T11:18:46.837Z,99960.42
2018-11-02T11:24:51.567Z,99965.34
2018-11-02T11:30:56.487Z,99980.27
2018-11-02T11:37:01.175Z,99982.98
2018-11-02T11:43:06.136Z,99981.97
2018-11-02T11:49:11.555Z,99980.66
2018-11-02T11:55:16.782Z,99970.58
2018-11-02T12:01:21.534Z,99972.28
2018-11-02T12:07:26.282Z,99984.11
2018-11-02T12:13:30.989Z,99992.52
2018-11-02T12:19:35.687Z,99998.03
2018-11-02T12:25:40.440Z,99994.30
2018-11-02T12:31:45.709Z,99999.42
2018-11-02T12:37:50.379Z,99989.28
2018-11-02T12:43:55.394Z,99992.98
2018-11-02T12:50:00.262Z,99995.20
2018-11-02T12:56:05.310Z,100004.76
2018-11-02T13:02:10.713Z,99994.89
2018-11-02T13:08:15.510Z,100002.05
2018-11-02T13:14:20.400Z,100004.16
2018-11-02T13:20:25.567Z,100011.36
2018-11-02T13:26:30.830Z,100026.27
2018-11-02T13:32:35.799Z,100038.20
2018-11-02T13:38:40.621Z,100044.86
2018-11-02T13:44:45.492Z,100056.80
2018-11-02T13:50:50.205Z,100066.93
2018-11-02T13:56:55.066Z,100082.48
2018-11-02T14:02:59.857Z,100101.44
2018-11-02T14:09:06.066Z,100090.80
2018-11-02T14:15:12.599Z,100100.98
2018-11-02T14:21:17.319Z,100121.84
2018-11-02T14:27:22.060Z,100137.41
2018-11-02T14:33:26.796Z,100135.66
2018-11-02T14:39:33.173Z,100137.84
2018-11-02T14:45:38.627Z,100145.75
2018-11-02T14:51:44.329Z,100147.37
2018-11-02T14:57:49.702Z,100155.58
2018-11-02T15:03:55.089Z,100146.17
2018-11-02T15:10:00.549Z,100146.02
2018-11-02T15:16:05.899Z,100151.70
2018-11-02T15:22:11.074Z,100150.09
2018-11-02T15:28:16.163Z,100167.84
2018-11-02T15:34:21.004Z,100170.83
2018-11-02T15:40:27.299Z,100168.84
2018-11-02T15:46:32.459Z,100171.84
2018-11-02T15:52:37.974Z,100167.11
2018-11-02T15:58:43.219Z,100171.47
2018-11-02T16:04:48.966Z,100188.20
2018-11-02T16:10:53.699Z,100190.28
2018-11-02T16:16:59.061Z,100203.67
2018-11-02T16:23:04.115Z,100223.40
2018-11-02T16:29:08.909Z,100212.75
2018-11-02T16:35:14.438Z,100237.03
2018-11-02T16:41:19.206Z,100239.03
2018-11-02T16:47:24.232Z,100258.11
2018-11-02T16:53:28.894Z,100277.84
2018-11-02T16:59:33.639Z,100290.88
2018-11-02T17:05:38.342Z,100287.86
2018-11-02T17:11:43.549Z,100296.22
2018-11-02T17:17:48.139Z,100309.73
2018-11-02T17:23:52.917Z,100321.09
2018-11-02T17:29:57.977Z,100331.48
2018-11-02T17:36:02.656Z,100329.91
2018-11-02T17:42:07.454Z,100337.79
2018-11-02T17:48:12.611Z,100341.38
2018-11-02T17:54:17.419Z,100349.63
2018-11-02T18:00:22.091Z,100357.05
2018-11-02T18:06:27.067Z,100366.97
2018-11-02T18:12:31.820Z,100371.78
2018-11-02T18:18:37.635Z,100377.98
2018-11-02T18:24:42.360Z,100389.74
2018-11-02T18:30:47.114Z,100380.14
2018-11-02T18:36:52.206Z,100387.32
2018-11-02T18:42:56.911Z,100399.98
2018-11-02T18:49:01.659Z,100391.30
2018-11-02T18:55:07.420Z,100407.73
2018-11-02T19:01:12.203Z,100424.13
2018-11-02T19:07:17.009Z,100420.55
2018-11-02T19:13:21.835Z,100440.19
2018-11-02T19:19:26.617Z,100443.98
2018-11-02T19:25:31.390Z,100450.87
2018-11-02T19:31:36.430Z,100476.79
2018-11-02T19:37:41.196Z,100480.72
2018-11-02T19:43:46.510Z,100496.27
2018-11-02T19:49:51.504Z,100515.65
2018-11-02T19:55:56.369Z,100520.16
2018-11-02T20:02:00.982Z,100534.96
2018-11-02T20:08:06.122Z,100539.55
2018-11-02T20:14:11.380Z,100545.16
2018-11-02T20:20:16.990Z,100545.48
2018-11-02T20:26:22.168Z,100540.05
2018-11-02T20:32:27.437Z,100536.41
2018-11-02T20:38:32.129Z,100543.42
2018-11-02T20:44:37.379Z,100550.30
2018-11-02T20:50:42.301Z,100559.88
2018-11-02T20:56:47.557Z,100566.73
2018-11-02T21:02:52.413Z,100580.89
2018-11-02T21:08:57.193Z,100595.25
2018-11-02T21:15:02.134Z,100597.67
2018-11-02T21:21:07.580Z,100599.15
2018-11-02T21:27:12.319Z,100596.11
2018-11-02T21:33:17.832Z,100590.42
2018-11-02T21:39:22.532Z,100587.88
2018-11-02T21:45:27.704Z,100581.53
2018-11-02T21:51:32.460Z,100590.80
2018-11-02T21:57:37.558Z,100603.70
2018-11-02T22:03:42.610Z,100607.88
2018-11-02T22:09:47.385Z,100617.44
2018-11-02T22:15:52.207Z,100619.41
2018-11-02T22:21:56.982Z,100620.04
2018-11-02T22:28:01.706Z,100637.13
2018-11-02T22:34:06.742Z,100641.19
2018-11-02T22:40:12.393Z,100639.60
2018-11-02T22:46:17.135Z,100636.89
2018-11-02T22:52:22.114Z,100625.41
2018-11-02T22:58:26.934Z,100625.11
2018-11-02T23:04:31.693Z,100616.93
2018-11-02T23:10:36.847Z,100607.95
2018-11-02T23:16:41.647Z,100589.44
2018-11-02T23:22:46.374Z,100600.36
2018-11-02T23:28:51.103Z,100603.64
2018-11-02T23:34:55.817Z,100614.38
2018-11-02T23:41:00.647Z,100610.70
2018-11-02T23:47:05.770Z,100602.13
2018-11-02T23:53:11.134Z,100613.58
2018-11-02T23:59:16.135Z,100602.83
